Home > Products > Valid Products > TAF

000
FTUS46 KOTX 312327
TAFPUW
TAF
KPUW 312327Z 0100/0124 27010KT 5SM BR VCSH SCT080 BKN100
      TEMPO 0101/0103 P6SM -RA BKN024 OVC050
     FM010400 27003KT 3SM BR SCT003 OVC022
     FM011000 VRB03KT 1SM BR OVC007
     FM011500 28005KT 5SM -RA BR OVC013=



000
FTUS46 KOTX 312327
TAFLWS
TAF
KLWS 312327Z 0100/0124 31005KT P6SM VCSH SCT080 OVC100
     FM011000 35003KT P6SM OVC035
     FM011500 VRB03KT P6SM -RA OVC030=



000
FTUS46 KOTX 312327
TAFMWH
TAF
KMWH 312327Z 0100/0124 21008KT 5SM BR SCT019 BKN030
     FM010300 21005KT 4SM BR SCT040 BKN120
     FM011200 34004KT 1SM BR BKN007 OVC040
     FM012000 34008KT P6SM BKN250=



000
FTUS46 KOTX 312327
TAFGEG
TAF
KGEG 312327Z 0100/0124 16003KT P6SM VCSH SCT008 OVC050
      TEMPO 0100/0104 21005KT 6SM -RA BR SCT007 OVC030
     FM010400 21004KT 1SM BR SCT004 OVC016
     FM010800 VRB03KT 1/2SM FG OVC001
     FM011500 29005KT 4SM -RA BR SCT001 OVC035=



000
FTUS46 KOTX 312327
TAFCOE
TAF
KCOE 312327Z 0100/0124 26004KT P6SM VCSH SCT016 OVC050
      TEMPO 0101/0104 5SM -RA BR SCT014 OVC030
     FM010400 20006KT 4SM BR SCT008 OVC015
     FM010900 VRB03KT 1SM BR BKN012
     FM011600 36005KT 6SM -RA BR OVC015
      AMD LTD TO CLD AND VIS=



000
FTUS46 KOTX 312327
TAFEAT
TAF
KEAT 312327Z 0100/0124 09004KT P6SM SCT070 OVC150
     FM010300 31005KT P6SM BKN250
     FM011400 28010KT P6SM OVC090
     FM011800 30009KT P6SM SCT250=



000
FTUS46 KOTX 312327
TAFSFF
TAF
KSFF 312327Z 0100/0124 VRB03KT P6SM VCSH SCT012 OVC050
      TEMPO 0100/0104 6SM -RA BR SCT012 OVC035
     FM010400 21006KT P6SM OVC022
     FM010900 VRB03KT 2SM BR OVC009
     FM011500 32004KT 3SM -RA BR SCT008 OVC040=



000
FTUS46 KOTX 312211 AAA
TAFEAT
TAF AMD
KEAT 312211Z 3122/0118 13006KT P6SM VCSH SCT005 BKN100
     FM010400 35005KT 4SM BR OVC035
     FM011100 28010KT P6SM OVC015=



000
FTUS46 KOTX 312209 AAB
TAFMWH
TAF AMD
KMWH 312209Z 3122/0118 VRB03KT 3SM -RA BR SCT007 OVC050
      TEMPO 3122/3124 2SM -RA BR BKN007 OVC050
     FM010100 19005KT P6SM SCT050 BKN120
     FM010700 36004KT 4SM BR SCT007 BKN120
     FM011200 34004KT 3SM BR OVC007=



000
FTUS46 KOTX 312207 AAB
TAFGEG
TAF AMD
KGEG 312207Z 3122/0118 16003KT P6SM VCSH SCT008 OVC050
     FM010200 21005KT 4SM -RA BR SCT007 OVC030
      TEMPO 0102/0104 1SM -RA BR OVC007
     FM010400 21004KT 1SM BR OVC004
     FM010800 13003KT 1/2SM FG OVC001=



000
FTUS46 KOTX 311923 AAA
TAFSFF
TAF AMD
KSFF 311923Z 3119/0118 VRB04KT P6SM OVC010
     FM010100 22004KT 6SM -RA BR BKN024 OVC035
     FM010400 21006KT 6SM BR OVC017
     FM011000 VRB03KT 2SM BR OVC009=



000
FTUS46 KOTX 311922 AAA
TAFGEG
TAF AMD
KGEG 311922Z 3119/0118 20006KT 2SM BR VCSH BKN006 OVC020
     FM010200 21005KT 3SM -RA BR SCT007 OVC030
     FM010400 21004KT 1SM BR OVC004
     FM010800 13003KT 1/2SM FG OVC001=



000
FTUS46 KOTX 311919 AAB
TAFCOE
TAF AMD
KCOE 311919Z 3119/0118 VRB03KT P6SM SCT090 OVC150
     FM312100 21010KT P6SM VCSH BKN040 OVC070
     FM010100 21006KT 6SM -RA BR SCT008 OVC035
     FM010900 01004KT 4SM BR BKN012
     FM011200 VRB03KT 1SM BR OVC009
      AMD LTD TO CLD AND VIS=



000
FTUS46 KOTX 311916 AAA
TAFPUW
TAF AMD
KPUW 311916Z 3119/0118 12004KT P6SM VCSH BKN120
     FM312100 26007KT P6SM VCSH BKN040 OVC060
     FM010100 27010KT 6SM -RA BKN035 OVC060
     FM011000 VRB03KT 3SM BR OVC003=



000
FTUS46 KOTX 311915 AAA
TAFLWS
TAF AMD
KLWS 311915Z 3119/0118 04004KT P6SM BKN130
     FM312100 28012KT P6SM VCSH SCT080 OVC100
     FM010300 VRB03KT P6SM VCSH BKN050 OVC080=



000
FTUS46 KOTX 311913 AAA
TAFMWH
TAF AMD
KMWH 311913Z 3119/0118 VRB03KT 3SM -RA BR BKN007 OVC070
      TEMPO 3119/3122 2SM -RA BR BKN005 OVC070
     FM010100 19005KT P6SM SCT050 BKN120
     FM010700 36004KT 4SM BR SCT007 BKN120
     FM011200 34004KT 3SM BR OVC007=



000
FTUS46 KOTX 311825 AAA
TAFCOE
TAF AMD
KCOE 311825Z 3118/0118 VRB03KT P6SM BKN008 OVC120
     FM312000 21010KT P6SM -RA BKN040 OVC070
     FM010400 21006KT P6SM OVC040
     FM010900 01004KT 4SM BR BKN012
     FM011200 VRB03KT 1SM BR OVC009
      AMD LTD TO CLD AND VIS=



000
FTUS46 KOTX 311739
TAFCOE
TAF
KCOE 311739Z 3118/0118 VRB03KT P6SM BKN120 OVC150
     FM312000 21010KT P6SM -RA BKN040 OVC070
     FM010400 21006KT P6SM OVC040
     FM010900 01004KT 4SM BR BKN012
     FM011200 VRB03KT 1SM BR OVC009
      AMD LTD TO CLD AND VIS=



000
FTUS46 KOTX 311739
TAFLWS
TAF
KLWS 311739Z 3118/0118 19005KT P6SM BKN130
     FM311900 28012KT P6SM VCSH SCT080 OVC120
     FM010300 VRB03KT P6SM VCSH BKN050 OVC080=



000
FTUS46 KOTX 311739
TAFEAT
TAF
KEAT 311739Z 3118/0118 13006KT P6SM BKN010
      TEMPO 3118/3122 4SM -RA BR SCT007 OVC012
     FM312200 24006KT P6SM SCT020 OVC030
     FM010100 34006KT P6SM SCT060 BKN120
     FM010600 35005KT 4SM BR OVC035
     FM011100 28010KT P6SM OVC015=



000
FTUS46 KOTX 311739
TAFSFF
TAF
KSFF 311739Z 3118/0118 VRB04KT P6SM OVC008
     FM311900 22009KT 6SM -RA BR BKN010 OVC022
     FM010100 22004KT 6SM -RA BR BKN024 OVC035
     FM010400 21006KT 6SM BR OVC017
     FM011000 VRB03KT 2SM BR OVC009=



000
FTUS46 KOTX 311739
TAFGEG
TAF
KGEG 311739Z 3118/0118 16005KT 1SM BR OVC002
     FM311900 21010KT 3SM -RA BR BKN007 OVC020
     FM010100 21005KT 6SM -RA BR BKN022 OVC030
     FM010400 21004KT 1SM BR OVC004
     FM010800 13003KT 1/2SM FG OVC001=



000
FTUS46 KOTX 311739
TAFMWH
TAF
KMWH 311739Z 3118/0118 VRB03KT 3SM BR SCT005 OVC070
      TEMPO 3119/3122 2SM -RA BR BKN005 OVC070
     FM010100 19005KT P6SM SCT050 BKN120
     FM010700 36004KT 4SM BR SCT007 BKN120
     FM011200 34004KT 3SM BR OVC007=



000
FTUS46 KOTX 311739
TAFPUW
TAF
KPUW 311739Z 3118/0118 12004KT 6SM BR VCSH SCT005 OVC120
     FM311900 21007KT 6SM -RA BR OVC008
     FM010100 27010KT 6SM -RA BKN035 OVC060
     FM011000 VRB03KT 3SM BR OVC003=



000
FTUS46 KOTX 311656 AAA
TAFPUW
TAF AMD
KPUW 311656Z 3117/0112 11004KT 5SM BR VCSH OVC005
     FM312000 21007KT 6SM BR VCSH OVC008
     FM010500 27010KT P6SM -RA SCT025 OVC060=



000
FTUS46 KOTX 311656 AAA
TAFPUW
TAF AMD
KPUW 311656Z 3117/0112 11004KT 5SM BR VCSH OVC005
     FM312000 21007KT 6SM BR VCSH OVC008
     FM010500 27010KT P6SM -RA SCT025 OVC060=



000
FTUS46 KOTX 311520 AAB
TAFGEG
TAF AMD
KGEG 311520Z 3115/0112 18005KT 1SM -DZ BR OVC003
      TEMPO 3115/3119 1/2SM FG OVC002
     FM312000 21012KT P6SM -RA BKN050 OVC090
     FM010000 22013G18KT P6SM -RA BKN025 OVC040
     FM010400 21006KT P6SM SCT025 OVC060=



000
FTUS46 KOTX 311519 AAB
TAFSFF
TAF AMD
KSFF 311519Z 3115/0112 VRB02KT 6SM BR BKN007 OVC012
     FM311900 21006KT P6SM OVC021
     FM312200 23010KT P6SM -RA BKN050 OVC090
     FM010000 22009KT P6SM -RA BKN030 OVC070
     FM010400 21006KT P6SM SCT025 OVC060=



000
FTUS46 KOTX 311515 AAA
TAFEAT
TAF AMD
KEAT 311515Z 3115/0112 07005KT P6SM BKN004 OVC013
      TEMPO 3115/3118 4SM BR OVC011
     FM311800 26006KT P6SM -SHRA OVC030
     FM010000 33006KT P6SM BKN060 BKN120
     FM010600 35005KT 4SM BR OVC035=



000
FTUS46 KOTX 311428 AAA
TAFMWH
TAF AMD
KMWH 311428Z 3114/0112 VRB03KT 5SM -RA BR OVC070
     FM311600 22008KT 3SM -RA BR BKN022 OVC050
     FM010100 19005KT P6SM SCT050 BKN120=



000
FTUS46 KOTX 311425 AAA
TAFSFF
TAF AMD
KSFF 311425Z 3114/0112 07004KT P6SM OVC012
     FM311600 20004KT P6SM SCT070 OVC110
     FM312200 23010KT P6SM -RA BKN050 OVC090
     FM010000 22009KT P6SM -RA BKN030 OVC070
     FM010400 21006KT P6SM SCT025 OVC060=



000
FTUS46 KOTX 311314 AAA
TAFGEG
TAF AMD
KGEG 311314Z 3113/0112 18005KT 1SM -DZ BR BKN003 OVC110
     FM311600 17007KT P6SM SCT070 OVC110
     FM312100 21012KT P6SM -RA BKN050 OVC090
     FM010000 22013G18KT P6SM -RA BKN025 OVC040
     FM010400 21006KT P6SM SCT025 OVC060=



000
FTUS46 KOTX 311138
TAFGEG
TAF
KGEG 311138Z 3112/0112 15007KT P6SM SCT070 OVC110
     FM312100 21012KT P6SM -RA BKN050 OVC090
     FM010000 22013G18KT P6SM -RA BKN025 OVC040
     FM010400 21006KT P6SM SCT025 OVC060=



000
FTUS46 KOTX 311138
TAFEAT
TAF
KEAT 311138Z 3112/0112 29007KT 2SM -RA SCT008 OVC025
     FM311700 31006KT P6SM -SHRA BKN040 OVC080
     FM312300 22006KT P6SM SCT060 BKN120=



000
FTUS46 KOTX 311138
TAFPUW
TAF
KPUW 311138Z 3112/0112 25007KT 1SM BR BKN004 OVC110
     FM311900 21007KT P6SM VCSH SCT020 BKN110
     FM010500 27010KT P6SM -RA SCT025 OVC060=



000
FTUS46 KOTX 311138
TAFLWS
TAF
KLWS 311138Z 3112/0112 19005KT P6SM SCT080 BKN130
     FM312200 28012KT P6SM SCT080 OVC100
     FM010300 33004KT P6SM -RA BKN050 OVC080=



000
FTUS46 KOTX 311138
TAFMWH
TAF
KMWH 311138Z 3112/0112 03006KT P6SM VCSH SCT060 OVC100
     FM311600 22008KT P6SM -RA BKN050 OVC100
     FM010100 19005KT P6SM SCT050 BKN120=



000
FTUS46 KOTX 311138
TAFSFF
TAF
KSFF 311138Z 3112/0112 VRB03KT P6SM SCT070 OVC110
     FM312200 23010KT P6SM -RA BKN050 OVC090
     FM010000 22009KT P6SM -RA BKN030 OVC070
     FM010400 21006KT P6SM SCT025 OVC060=



000
FTUS46 KOTX 311138
TAFCOE
TAF
KCOE 311138Z 3112/0112 05009KT P6SM SCT070 OVC110
     FM312200 23010KT P6SM -RA BKN050 OVC090
     FM010000 22009KT P6SM -RA BKN030 OVC070
     FM010400 21006KT P6SM BKN020 OVC060
      AMD LTD TO CLD AND VIS=



000
FTUS46 KOTX 310952 AAA
TAFPUW
TAF AMD
KPUW 310952Z 3110/0106 25007KT 1SM BR BKN004 OVC110
     FM311200 11007KT P6SM OVC100
     FM312200 23014KT P6SM BKN060 OVC080
     FM010100 27010KT P6SM -RA SCT025 BKN035 OVC050=



000
FTUS46 KOTX 310952 AAA
TAFPUW
TAF AMD
KPUW 310952Z 3110/0106 25007KT 1SM BR BKN004 OVC110
     FM311200 11007KT P6SM OVC100
     FM312200 23014KT P6SM BKN060 OVC080
     FM010100 27010KT P6SM -RA SCT025 BKN035 OVC050=



000
FTUS46 KOTX 310904 AAB
TAFEAT
TAF AMD
KEAT 310904Z 3109/0106 29007KT 2SM -RA SCT008 OVC030
     FM311700 31006KT P6SM -SHRA BKN040 OVC080
     FM312300 22006KT P6SM SCT060 BKN120=



000
FTUS46 KOTX 310701 AAA
TAFEAT
TAF AMD
KEAT 310701Z 3107/0106 29007KT 2SM RA BKN005 OVC035
     FM311700 31006KT P6SM -SHRA BKN040 OVC080
     FM312300 22006KT P6SM SCT060 BKN120=



000
FTUS46 KOTX 310532
TAFPUW
TAF
KPUW 310532Z 3106/0106 10012KT P6SM BKN150 OVC250
     FM311800 11009KT P6SM BKN100 OVC150
     FM312200 23014KT P6SM BKN060 OVC080
     FM010100 27010KT P6SM -RA SCT025 BKN035 OVC050=



000
FTUS46 KOTX 310532
TAFEAT
TAF
KEAT 310532Z 3106/0106 34007KT P6SM -RA BKN010 OVC020
      TEMPO 3106/3110 FEW015 OVC030
     FM312000 31006KT P6SM -SHRA BKN040 OVC060
     FM312300 22006KT P6SM SCT060 BKN120=



000
FTUS46 KOTX 310532
TAFLWS
TAF
KLWS 310532Z 3106/0106 13006KT P6SM BKN150 OVC250
     FM311600 05005KT P6SM OVC150
     FM312200 28012KT P6SM SCT080 OVC100
     FM010200 33004KT P6SM -RA BKN050 OVC080=



000
FTUS46 KOTX 310532
TAFCOE
TAF
KCOE 310532Z 3106/0106 02014KT P6SM BKN100 OVC150
     FM310900 05012KT P6SM BKN120 OVC150
     FM311600 06008KT P6SM BKN100 OVC120
     FM311900 22010KT P6SM BKN050 OVC070
     FM312300 22014G20KT P6SM -RA SCT025 BKN035 OVC050
     FM010400 19007KT P6SM SCT015 BKN025 OVC040
      AMD LTD TO CLD AND VIS=



000
FTUS46 KOTX 310532
TAFMWH
TAF
KMWH 310532Z 3106/0106 34007KT P6SM BKN070 OVC100
     FM311200 03006KT P6SM VCSH BKN060 OVC080
     FM311700 22008KT P6SM -RA BKN050 BKN100
     FM010100 19005KT P6SM SCT050 BKN120=



000
FTUS46 KOTX 310532
TAFSFF
TAF
KSFF 310532Z 3106/0106 09003KT P6SM BKN100 OVC150
     FM310900 13004KT P6SM BKN100 OVC120
     FM311600 17003KT P6SM BKN080 OVC100
     FM312100 22010KT P6SM -RA BKN045 OVC060
     FM312300 23012G18KT P6SM -RA BKN025 OVC040
     FM010400 23004KT P6SM SCT020 BKN040 OVC060=



000
FTUS46 KOTX 310532
TAFGEG
TAF
KGEG 310532Z 3106/0106 06008KT P6SM BKN100 OVC150
     FM310900 16006KT P6SM BKN100 OVC120
     FM311600 18006KT P6SM BKN080 OVC100
     FM312100 21012KT P6SM -RA BKN050 OVC060
     FM312300 22013G18KT P6SM -RA BKN025 OVC040
     FM010400 21006KT P6SM SCT025 BKN040 OVC060=



000
FTUS46 KOTX 302335
TAFEAT
TAF
KEAT 302335Z 3100/3124 VRB04KT P6SM VCSH SCT003 OVC020
      TEMPO 3100/3104 5SM -RA BR BKN004 OVC018
     FM310600 29003KT 4SM -RA BKN008 OVC015
     FM311900 31006KT P6SM -SHRA OVC060=



000
FTUS46 KOTX 302335
TAFPUW
TAF
KPUW 302335Z 3100/3124 10012KT P6SM BKN150 OVC250
     FM311800 11009KT P6SM BKN120 OVC150
     FM312200 23010KT P6SM -RA OVC080=



000
FTUS46 KOTX 302335
TAFCOE
TAF
KCOE 302335Z 3100/3124 02014KT P6SM BKN070 OVC090
     FM310900 05012KT P6SM BKN150 OVC250
     FM311600 06008KT P6SM VCSH BKN060 OVC100
     FM312000 22010KT P6SM -RA BKN045 OVC070
      AMD LTD TO CLD AND VIS=



000
FTUS46 KOTX 302335
TAFLWS
TAF
KLWS 302335Z 3100/3124 VRB03KT P6SM BKN150 OVC250
     FM311600 05005KT P6SM OVC150
     FM312200 32006KT P6SM -RA OVC100=



000
FTUS46 KOTX 302335
TAFSFF
TAF
KSFF 302335Z 3100/3124 09004KT P6SM BKN090 OVC200
     FM310800 12005KT P6SM BKN150 OVC250
     FM311600 16003KT P6SM VCSH BKN070 OVC100
     FM312000 20008KT P6SM -RA BKN045 OVC080=



000
FTUS46 KOTX 302335
TAFMWH
TAF
KMWH 302335Z 3100/3124 32004KT P6SM OVC120
     FM310400 01007KT P6SM VCSH BKN060 OVC100
     FM311200 05006KT P6SM -RA OVC045
     FM311900 24010KT P6SM BKN060 BKN100=



000
FTUS46 KOTX 302335
TAFGEG
TAF
KGEG 302335Z 3100/3124 06008KT P6SM FEW080 BKN100 OVC200
     FM310900 16006KT P6SM BKN120 OVC250
     FM311600 11006KT P6SM VCSH BKN050 OVC100
     FM312000 21012KT P6SM -RA BKN040 OVC070=



000
FTUS46 KOTX 301730
TAFCOE
TAF
KCOE 301730Z 3018/3118 03010KT P6SM VCSH BKN080 OVC120
     FM310600 05012KT P6SM SCT080 BKN090
      AMD LTD TO CLD AND VIS=



000
FTUS46 KOTX 301730
TAFLWS
TAF
KLWS 301730Z 3018/3118 10005KT P6SM -RA OVC090
     FM302200 10006KT P6SM BKN080 BKN150
     FM310200 10005KT P6SM SCT200=



000
FTUS46 KOTX 301730
TAFPUW
TAF
KPUW 301730Z 3018/3118 11014KT P6SM VCSH BKN080 OVC100
     FM302300 12012KT P6SM SCT080 BKN150
     FM310300 09009KT P6SM SCT200=



000
FTUS46 KOTX 301730
TAFGEG
TAF
KGEG 301730Z 3018/3118 04007KT P6SM VCSH SCT040 BKN080 OVC100
     FM310600 07006KT P6SM SCT060 BKN090=



000
FTUS46 KOTX 301730
TAFMWH
TAF
KMWH 301730Z 3018/3118 36006KT P6SM -RA OVC050
     FM302200 01007KT P6SM SCT050 OVC070
     FM310700 03006KT P6SM -RA OVC045=



000
FTUS46 KOTX 301730
TAFSFF
TAF
KSFF 301730Z 3018/3118 08004KT P6SM VCSH SCT060 OVC100
     FM310600 07006KT P6SM VCSH SCT070 BKN100=



000
FTUS46 KOTX 301730
TAFEAT
TAF
KEAT 301730Z 3018/3118 VRB04KT P6SM -RA SCT003 OVC020
      TEMPO 3018/3022 4SM -RA BR BKN004 OVC018
     FM310100 32006KT P6SM VCSH SCT006 BKN012
     FM310400 VRB03KT 6SM -RA BKN008 OVC015=



000
FTUS46 KOTX 301730
TAFEAT
TAF
KEAT 301730Z 3018/3118 VRB04KT P6SM -RA SCT003 OVC020
      TEMPO 3018/3022 4SM -RA BR BKN004 OVC018
     FM310100 32006KT P6SM VCSH SCT006 BKN012
     FM310400 VRB03KT 6SM -RA BKN008 OVC015=



000
FTUS46 KOTX 301730
TAFSFF
TAF
KSFF 301730Z 3018/3118 08004KT P6SM VCSH SCT060 OVC100
     FM310600 07006KT P6SM VCSH SCT070 BKN100=



000
FTUS46 KOTX 301730
TAFMWH
TAF
KMWH 301730Z 3018/3118 36006KT P6SM -RA OVC050
     FM302200 01007KT P6SM SCT050 OVC070
     FM310700 03006KT P6SM -RA OVC045=



000
FTUS46 KOTX 301730
TAFCOE
TAF
KCOE 301730Z 3018/3118 03010KT P6SM VCSH BKN080 OVC120
     FM310600 05012KT P6SM SCT080 BKN090
      AMD LTD TO CLD AND VIS=



000
FTUS46 KOTX 301730
TAFPUW
TAF
KPUW 301730Z 3018/3118 11014KT P6SM VCSH BKN080 OVC100
     FM302300 12012KT P6SM SCT080 BKN150
     FM310300 09009KT P6SM SCT200=



000
FTUS46 KOTX 301730
TAFGEG
TAF
KGEG 301730Z 3018/3118 04007KT P6SM VCSH SCT040 BKN080 OVC100
     FM310600 07006KT P6SM SCT060 BKN090=



000
FTUS46 KOTX 301730
TAFLWS
TAF
KLWS 301730Z 3018/3118 10005KT P6SM -RA OVC090
     FM302200 10006KT P6SM BKN080 BKN150
     FM310200 10005KT P6SM SCT200=



000
FTUS46 KOTX 301618 AAB
TAFEAT
TAF AMD
KEAT 301618Z 3016/3112 VRB04KT 6SM -RA SCT004 OVC018
     FM301800 VRB03KT P6SM -RA SCT004 BKN012 OVC026
     FM310000 28006KT P6SM VCSH SCT012 OVC028
     FM310400 VRB03KT 6SM -RA BKN008 OVC015=



000
FTUS46 KOTX 301434 AAA
TAFCOE
TAF AMD
KCOE 301434Z 3015/3112 02011KT P6SM VCSH OVC070
     FM301800 03014KT P6SM -RA BKN045 OVC060
     FM302300 07007KT P6SM VCSH SCT030 BKN080
      AMD LTD TO CLD AND VIS=



000
FTUS46 KOTX 301423 AAA
TAFEAT
TAF AMD
KEAT 301423Z 3014/3112 VRB04KT P6SM -RA SCT004 OVC015
      TEMPO 3014/3018 6SM -RA BR BKN004 OVC015
     FM301800 VRB03KT P6SM -RA SCT004 BKN012 OVC026
     FM310000 28006KT P6SM VCSH SCT012 OVC028
     FM310400 VRB03KT 6SM -RA BKN008 OVC015=



000
FTUS46 KOTX 301334 AAA
TAFGEG
TAF AMD
KGEG 301334Z 3014/3112 05008KT P6SM VCSH SCT004 OVC090
     FM301800 05007KT P6SM -RA SCT010 OVC060
     FM302300 07006KT P6SM VCSH SCT030 BKN080=



000
FTUS46 KOTX 301145 CCA
TAFEAT
TAF COR
KEAT 301145Z 3012/3112 VRB04KT 6SM -RA BR BKN020 OVC060
     FM301600 32003KT P6SM -RA SCT030 OVC050=



000
FTUS46 KOTX 301141 CCA
TAFMWH
TAF COR
KMWH 301141Z 3012/3112 36008KT 6SM BR VCSH SCT008 OVC070
     FM301600 02007KT P6SM -RA SCT020 OVC060
     FM310000 03006KT P6SM SCT090=



000
FTUS46 KOTX 301139
TAFPUW
TAF
KPUW 301139Z 3012/3112 11013KT P6SM VCSH OVC090
     FM302000 12012KT P6SM SCT080 BKN150
     FM310200 10007KT P6SM SCT200=



000
FTUS46 KOTX 301139
TAFCOE
TAF
KCOE 301139Z 3012/3112 04012KT P6SM BKN006 OVC100
     FM301500 05012KT P6SM VCSH SCT006 OVC090
     FM301800 05011KT P6SM -RA SCT010 OVC060
     FM302300 07007KT P6SM VCSH SCT030 BKN080
      AMD LTD TO CLD AND VIS=



000
FTUS46 KOTX 301139
TAFSFF
TAF
KSFF 301139Z 3012/3112 VRB03KT 6SM BR SCT008 OVC100
     FM301500 07006KT P6SM VCSH SCT008 OVC090
     FM301800 06007KT P6SM -RA SCT010 OVC070
     FM302300 VRB04KT P6SM VCSH SCT030 BKN080=



000
FTUS46 KOTX 301139
TAFLWS
TAF
KLWS 301139Z 3012/3112 12005KT P6SM VCSH OVC100
     FM302000 09007KT P6SM SCT080 BKN150
     FM310200 10005KT P6SM SCT200=



000
FTUS46 KOTX 301139
TAFGEG
TAF
KGEG 301139Z 3012/3112 05008KT P6SM BKN004 OVC090
     FM301500 06008KT P6SM VCSH SCT006 OVC080
     FM301800 05007KT P6SM -RA SCT010 OVC060
     FM302300 07006KT P6SM VCSH SCT030 BKN080=



000
FTUS46 KOTX 301139
TAFEAT
TAF
KEAT 301139Z 3012/3112 VRB04KT 6SM BR BKN020 BKN120
     FM301900 32003KT P6SM -RA SCT030 OVC050=



000
FTUS46 KOTX 301139
TAFMWH
TAF
KMWH 301139Z 3012/3112 36008KT 6SM BR VCSH SCT008 OVC070
     FM301300 03006KT P6SM VCSH SCT008 OVC060
     FM301600 02007KT P6SM -RA SCT030 OVC050=



000
FTUS46 KOTX 301029 AAA
TAFCOE
TAF AMD
KCOE 301029Z 3010/3106 04009KT P6SM BKN006
     FM301400 04008KT P6SM VCSH SCT006 OVC100
     FM301900 05010KT P6SM -RA SCT012 OVC080
     FM310400 05010KT 2SM BR VCSH SCT002 BKN019 OVC080
      AMD LTD TO CLD AND VIS=



000
FTUS46 KOTX 300735 CCA
TAFGEG
TAF COR
KGEG 300735Z 3007/3106 05005KT 5SM BR BKN004
     FM301100 06005KT 5SM BR SCT006 OVC070
     FM301800 07007KT P6SM -RA SCT006 SCT019 OVC080
     FM310400 07006KT P6SM VCSH SCT030 BKN080=



000
FTUS46 KOTX 300731 AAA
TAFSFF
TAF AMD
KSFF 300731Z 3008/3106 00000KT 1SM BR BKN006
     FM301100 09003KT 5SM BR SCT006 OVC080
     FM301800 08003KT P6SM -RA SCT009 SCT019 OVC080
     FM310400 04003KT P6SM VCSH SCT030 BKN080=



000
FTUS46 KOTX 300725 AAA
TAFGEG
TAF AMD
KGEG 300725Z 3007/3106 14004KT 5SM BR SCT003 BKN080
      TEMPO 3007/3009 2SM BR BKN003
     FM301000 07006KT P6SM OVC006
     FM301800 07007KT P6SM -RA SCT006 SCT019 OVC080
     FM310400 07006KT P6SM VCSH SCT030 BKN080=



000
FTUS46 KOTX 300601 AAA
TAFMWH
TAF AMD
KMWH 300601Z 3006/3106 36006KT 6SM BR SCT008 OVC070
     FM301100 03006KT P6SM VCSH SCT008 OVC060
     FM301300 02007KT P6SM -RA SCT030 OVC050=



000
FTUS46 KOTX 300521
TAFGEG
TAF
KGEG 300521Z 3006/3106 14004KT 6SM BR SCT006 SCT030 BKN080
     FM301000 07006KT P6SM OVC006
     FM301800 07007KT P6SM -RA SCT006 SCT019 OVC080
     FM310400 07006KT P6SM VCSH SCT030 BKN080=



000
FTUS46 KOTX 300521
TAFPUW
TAF
KPUW 300521Z 3006/3106 09004KT P6SM SCT045 SCT200
     FM301200 10008KT P6SM SCT120 OVC150
     FM301900 10009KT P6SM VCSH BKN060 OVC120
     FM310400 10007KT P6SM SCT060 BKN120=



000
FTUS46 KOTX 300521
TAFLWS
TAF
KLWS 300521Z 3006/3106 10004KT P6SM SCT200
     FM301400 08004KT P6SM BKN120 OVC150
     FM301800 08004KT P6SM VCSH BKN080 BKN120
     FM310200 09004KT P6SM SCT080 BKN120=



000
FTUS46 KOTX 300521
TAFSFF
TAF
KSFF 300521Z 3006/3106 VRB03KT 3SM BR SCT001 BKN080
     FM301000 09003KT 5SM BR OVC009
     FM301800 08003KT P6SM -RA SCT009 SCT019 OVC080
     FM310400 04003KT P6SM VCSH SCT030 BKN080=



000
FTUS46 KOTX 300521
TAFCOE
TAF
KCOE 300521Z 3006/3106 09003KT 1SM BR SCT002 BKN019 OVC080
     FM301500 04012KT P6SM SCT012 BKN100 OVC200
     FM301900 05010KT P6SM -RA SCT012 OVC080
     FM310400 05010KT 2SM BR VCSH SCT002 BKN019 OVC080
      AMD LTD TO CLD AND VIS=



000
FTUS46 KOTX 300521
TAFMWH
TAF
KMWH 300521Z 3006/3106 03004KT 3SM BR BKN003
     FM301000 03006KT 5SM BR SCT008 BKN060 OVC100
     FM301300 02007KT P6SM -RA SCT030 OVC050=



000
FTUS46 KOTX 300521
TAFEAT
TAF
KEAT 300521Z 3006/3106 VRB04KT 6SM BR BKN020 BKN120
     FM301900 32003KT P6SM -RA SCT030 OVC050=



000
FTUS46 KOTX 300520
TAFCOE
TAF
KCOE 300520Z 3006/3106 05007KT 2SM BR SCT040 BKN080
     FM301500 04012KT P6SM SCT012 BKN100 OVC200
     FM301900 05010KT P6SM -RA SCT012 OVC080
      AMD LTD TO CLD AND VIS=



000
FTUS46 KOTX 300349 AAC
TAFCOE
TAF AMD
KCOE 300349Z 3004/3024 09003KT 2SM BR SCT002 BKN019 OVC080
     FM301500 04012KT P6SM SCT012 BKN100 OVC200
     FM301900 05010KT P6SM -RA SCT012 OVC080
      AMD LTD TO CLD AND VIS=



000
FTUS46 KOTX 300319 AAB
TAFCOE
TAF AMD
KCOE 300319Z 3003/3024 09003KT 2SM BR SCT002 SCT040 BKN080
     FM301500 04012KT P6SM SCT012 BKN100 OVC200
     FM301900 05010KT P6SM -RA SCT012 OVC080
      AMD LTD TO CLD AND VIS=



000
FTUS46 KOTX 300252 AAA
TAFCOE
TAF AMD
KCOE 300252Z 3003/3024 09003KT 2SM BR SCT040 BKN080
     FM301500 04012KT P6SM SCT012 BKN100 OVC200
     FM301900 05010KT P6SM -RA SCT012 OVC080
      AMD LTD TO CLD AND VIS=



000
FTUS46 KOTX 300147 AAA
TAFMWH
TAF AMD
KMWH 300147Z 3002/3024 11003KT 2SM BR SCT020 SCT250
     FM300500 03004KT 2SM BR BKN003
     FM301000 03006KT 5SM BR SCT008 BKN060 OVC100
     FM301300 02007KT P6SM -RA SCT030 OVC050=



000
FTUS46 KOTX 292326
TAFMWH
TAF
KMWH 292326Z 3000/3024 11003KT P6SM SCT020 SCT250
     FM300500 03004KT 2SM BR BKN003
     FM301000 03006KT 5SM BR SCT008 BKN060 OVC100
     FM301300 02007KT P6SM -RA SCT030 OVC050=



000
FTUS46 KOTX 292326
TAFGEG
TAF
KGEG 292326Z 3000/3024 04005KT P6SM SCT020 SCT060
     FM300200 14004KT P6SM SCT030 SCT200
     FM301000 07006KT P6SM OVC006
     FM301800 07007KT P6SM -RA SCT006 SCT019 OVC080=



000
FTUS46 KOTX 292326
TAFSFF
TAF
KSFF 292326Z 3000/3024 VRB03KT P6SM SCT025 SCT060 BKN200
     FM300600 VRB03KT 6SM BR BCFG SCT001
     FM301000 09003KT 6SM BR OVC009
     FM301800 08003KT P6SM -RA SCT009 SCT019 OVC080=



000
FTUS46 KOTX 292326
TAFEAT
TAF
KEAT 292326Z 3000/3024 VRB04KT P6SM SCT020 SCT200
     FM301000 30004KT P6SM BKN060 OVC100
     FM301300 32003KT P6SM -RA SCT030 OVC050
     FM301500 29003KT 6SM -RA BR OVC020=



000
FTUS46 KOTX 292326
TAFLWS
TAF
KLWS 292326Z 3000/3024 04003KT P6SM BKN080
     FM300100 10004KT P6SM SCT200
     FM301400 08004KT P6SM BKN120 OVC150
     FM301800 08004KT P6SM VCSH BKN080 BKN120=



000
FTUS46 KOTX 292326
TAFPUW
TAF
KPUW 292326Z 3000/3024 26006KT P6SM SCT030 SCT045 BKN080
     FM300200 09004KT P6SM SCT045 SCT200
     FM301200 10008KT P6SM SCT120 OVC150
     FM301900 10009KT P6SM VCSH BKN060 OVC120=



000
FTUS46 KOTX 292326
TAFCOE
TAF
KCOE 292326Z 3000/3024 23005KT P6SM BKN024 BKN040
     FM300100 09003KT P6SM BKN030
     FM300500 05007KT P6SM SCT040 SCT200
     FM301500 04012KT P6SM SCT012 BKN100 OVC200
     FM301900 05010KT P6SM -RA SCT012 OVC080
      AMD LTD TO CLD AND VIS=



000
FTUS46 KOTX 292121 AAA
TAFMWH
TAF AMD
KMWH 292121Z 2921/3018 02006KT P6SM BKN009
     FM292130 VRB04KT P6SM SCT012 SCT250
     FM292300 15003KT P6SM SCT250
     FM300500 03004KT 2SM BR BKN003
     FM301000 03006KT 5SM BR SCT008 BKN060 OVC100
     FM301300 02007KT P6SM -RA SCT030 OVC050=



000
FTUS46 KOTX 291743 CCA
TAFEAT
TAF COR
KEAT 291743Z 2918/3018 VRB04KT P6SM SCT020 SCT200
     FM301000 30004KT P6SM BKN060 OVC100
     FM301300 32003KT P6SM -RA SCT030 OVC050
     FM301500 29003KT 6SM -RA BR OVC020=



000
FTUS46 KOTX 291739
TAFPUW
TAF
KPUW 291739Z 2918/3018 VRB04KT P6SM SCT050 SCT100
     FM291900 21006KT P6SM SCT030 BKN045
     FM300100 09004KT P6SM SCT045 SCT200
     FM301200 10008KT P6SM SCT120 OVC150=



000
FTUS46 KOTX 291739
TAFEAT
TAF
KEAT 291739Z 2918/3018 21005KT P6SM SCT012 SCT020
     FM300100 10003KT P6SM SCT200
     FM301000 03006KT P6SM BKN060 OVC100
     FM301300 02007KT P6SM -RA SCT030 OVC050=



000
FTUS46 KOTX 291739
TAFSFF
TAF
KSFF 291739Z 2918/3018 22003KT P6SM OVC014
     FM292000 22003KT P6SM SCT018 BKN025
     FM292200 22003KT P6SM BKN030 BKN045
     FM292300 VRB03KT P6SM SCT040 SCT060 BKN200
     FM300600 VRB03KT 6SM BR BCFG SCT001
     FM301000 09003KT 6SM BR OVC009=



000
FTUS46 KOTX 291739
TAFGEG
TAF
KGEG 291739Z 2918/3018 20006KT P6SM BKN008 OVC025
     FM292000 20006KT P6SM BKN012 OVC028
     FM292130 21006KT P6SM BKN020 BKN035
     FM292300 21005KT P6SM SCT025 SCT060
     FM300100 14004KT P6SM SCT030 SCT200
     FM301000 07006KT P6SM OVC006=



000
FTUS46 KOTX 291739
TAFMWH
TAF
KMWH 291739Z 2918/3018 00000KT 1/2SM FG OVC002
     FM291900 VRB03KT 1SM BR OVC002
     FM291930 22004KT 6SM BR BKN005
     FM292030 18005KT P6SM SCT250
     FM301000 03006KT P6SM BKN060 OVC100
     FM301300 02007KT P6SM -RA SCT030 OVC050=



000
FTUS46 KOTX 291739
TAFLWS
TAF
KLWS 291739Z 2918/3018 04003KT P6SM BKN080
     FM300100 10004KT P6SM SCT200
     FM301400 08004KT P6SM BKN120 OVC150=



000
FTUS46 KOTX 291739
TAFCOE
TAF
KCOE 291739Z 2918/3018 23005KT P6SM BKN024 BKN030
     FM300100 09003KT P6SM BKN030
     FM300500 05007KT P6SM SCT040 SCT200
     FM301500 04010KT P6SM SCT012 BKN100 OVC200
      AMD LTD TO CLD AND VIS=



000
FTUS46 KOTX 291624 AAB
TAFGEG
TAF AMD
KGEG 291624Z 2916/3012 20006KT 6SM BR OVC005
     FM291800 20006KT P6SM OVC008
     FM292000 20006KT P6SM BKN012 OVC035
     FM292130 21006KT P6SM BKN020 BKN040
     FM300100 14004KT P6SM SCT030 SCT200=



000
FTUS46 KOTX 291623 AAA
TAFMWH
TAF AMD
KMWH 291623Z 2916/3012 00000KT 1/4SM FG OVC002
     FM291800 VRB03KT 1SM BR OVC002
     FM291900 22004KT 6SM BR BKN005
     FM292030 18005KT P6SM SCT250=



000
FTUS46 KOTX 291619 AAA
TAFPUW
TAF AMD
KPUW 291619Z 2916/3012 VRB04KT P6SM FEW050 SCT100
     FM291900 21006KT P6SM SCT030 BKN040
     FM300100 09004KT P6SM SCT040 SCT200=



000
FTUS46 KOTX 291616 AAA
TAFCOE
TAF AMD
KCOE 291616Z 2916/3012 23005KT P6SM BKN022 BKN030
     FM300100 09003KT P6SM BKN030
     FM300500 05004KT P6SM SCT040 SCT200
      AMD LTD TO CLD AND VIS=



000
FTUS46 KOTX 291611 AAA
TAFSFF
TAF AMD
KSFF 291611Z 2916/3012 21003KT P6SM OVC012
     FM292000 22003KT P6SM SCT015 BKN025
     FM292200 22003KT P6SM BKN030 BKN045
     FM300100 04003KT P6SM SCT050 SCT200=



000
FTUS46 KOTX 291601 AAA
TAFGEG
TAF AMD
KGEG 291601Z 2916/3012 19006KT 4SM BR OVC005
     FM291800 19006KT 6SM BR OVC008
     FM292000 20006KT P6SM BKN012 OVC035
     FM292130 21006KT P6SM BKN020 BKN040
     FM300100 14004KT P6SM SCT030 SCT200=



000
FTUS46 KOTX 291132
TAFSFF
TAF
KSFF 291132Z 2912/3012 VRB03KT 5SM BR BKN010
      TEMPO 2912/2915 3SM BR OVC007
     FM291700 20007G10KT P6SM SCT010 OVC040
     FM291900 22007KT P6SM SCT015 BKN050
     FM300100 04003KT P6SM SCT050 SCT200=



000
FTUS46 KOTX 291132
TAFPUW
TAF
KPUW 291132Z 2912/3012 18004KT 6SM BR FEW015 SCT090
      TEMPO 2912/2916 3SM BR BKN010
     FM291700 22010KT P6SM SCT030
     FM300100 10004KT P6SM SCT040=



000
FTUS46 KOTX 291132
TAFEAT
TAF
KEAT 291132Z 2912/3012 VRB03KT P6SM BKN020
     FM291900 21005KT P6SM SCT012 SCT020
     FM300100 10003KT P6SM SCT200=



000
FTUS46 KOTX 291132
TAFCOE
TAF
KCOE 291132Z 2912/3012 VRB04KT 5SM BR OVC012
      TEMPO 2912/2915 2SM BR BKN007
     FM291700 19004KT 6SM BR OVC012
     FM291900 22005KT P6SM SCT012 BKN040
     FM300100 13003KT P6SM SCT040 SCT200
      AMD LTD TO CLD AND VIS=



000
FTUS46 KOTX 291132
TAFGEG
TAF
KGEG 291132Z 2912/3012 21008KT 5SM BR BKN007
      TEMPO 2912/2915 3/4SM -DZ BR OVC005
     FM291700 20007G10KT P6SM SCT010 OVC040
     FM300100 14004KT P6SM SCT040 SCT200=



000
FTUS46 KOTX 291132
TAFMWH
TAF
KMWH 291132Z 2912/3012 17004KT 3SM BR SCT003 BKN015
      TEMPO 2912/2916 1/2SM FG BKN002
     FM291800 18005KT P6SM SCT020
     FM300100 12004KT P6SM SCT080=



000
FTUS46 KOTX 291132
TAFLWS
TAF
KLWS 291132Z 2912/3012 05004KT P6SM VCSH SCT010 BKN050
     FM292000 31003KT P6SM SCT045
     FM300100 14003KT P6SM SCT045=



000
FTUS46 KOTX 290815 AAA
TAFMWH
TAF AMD
KMWH 290815Z 2908/3006 20006KT P6SM OVC020
     FM291700 18005KT P6SM SCT020
     FM300100 12004KT P6SM SCT080=



000
FTUS46 KOTX 290802 AAA
TAFPUW
TAF AMD
KPUW 290802Z 2908/3006 18007KT 6SM BR OVC012
     FM291700 22010KT P6SM SCT030
     FM300100 10004KT P6SM SCT040=



000
FTUS46 KOTX 290759 AAA
TAFCOE
TAF AMD
KCOE 290759Z 2908/3006 VRB03KT 3SM BR OVC009
     FM291700 19004KT 6SM BR OVC012
     FM291900 22005KT P6SM SCT012 BKN040
     FM300100 13003KT P6SM SCT040 SCT200
      AMD LTD TO CLD AND VIS=



000
FTUS46 KOTX 290756 AAA
TAFSFF
TAF AMD
KSFF 290756Z 2908/3006 VRB03KT 3SM BR OVC008
     FM291700 20007G10KT P6SM SCT010 OVC040
     FM291900 22007KT P6SM SCT015 BKN050
     FM300100 04003KT P6SM SCT050 SCT200=



000
FTUS46 KOTX 290715 AAA
TAFGEG
TAF AMD
KGEG 290715Z 2907/3006 18005KT 3SM -DZ BR OVC006
     FM291700 20007G10KT P6SM SCT010 OVC040
     FM300100 14004KT P6SM SCT040 SCT200=



000
FTUS46 KOTX 290522 CCA
TAFMWH
TAF COR
KMWH 290522Z 2906/3006 12003KT P6SM BKN019 BKN080
     FM291400 22005KT P6SM SCT050 SCT080
     FM300100 12004KT P6SM SCT080=



000
FTUS46 KOTX 290521 CCA
TAFSFF
TAF COR
KSFF 290521Z 2906/3006 16006KT 5SM -SHRA BKN019 BKN035 OVC050
     FM290800 20007KT P6SM VCSH BKN020 OVC040
     FM291000 18007KT 6SM BR BKN019 OVC040
     FM291900 22007KT P6SM SCT015 BKN050
     FM300100 04003KT P6SM SCT050 SCT200=



000
FTUS46 KOTX 290521 CCA
TAFGEG
TAF COR
KGEG 290521Z 2906/3006 16006KT 5SM -SHRA BKN019 BKN030 OVC050
     FM290800 16006KT P6SM VCSH SCT035 BKN050
     FM291000 18008KT 6SM BR BKN015 OVC040
     FM291900 20007G10KT P6SM SCT015 OVC040
     FM300100 14004KT P6SM SCT040 SCT200=



000
FTUS46 KOTX 290520
TAFCOE
TAF
KCOE 290520Z 2906/3006 VRB03KT P6SM -SHRA SCT019 BKN025 OVC050
     FM291000 15004KT 6SM BR OVC012
     FM292000 22005KT P6SM SCT012 BKN040
     FM300100 13003KT P6SM SCT040 SCT200
      AMD LTD TO CLD AND VIS=



000
FTUS46 KOTX 290520
TAFEAT
TAF
KEAT 290520Z 2906/3006 VRB03KT P6SM OVC020
     FM291500 00000KT 5SM BR SCT012 BKN020
     FM291900 21005KT P6SM SCT012 SCT020
     FM300100 10003KT P6SM SCT200=



000
FTUS46 KOTX 290520
TAFPUW
TAF
KPUW 290520Z 2906/3006 12010KT P6SM -SHRA SCT030 BKN040 OVC060
     FM291000 10006KT P6SM OVC040
     FM292000 22010KT P6SM SCT040
     FM300100 10004KT P6SM SCT040=



000
FTUS46 KOTX 290520
TAFLWS
TAF
KLWS 290520Z 2906/3006 15006KT P6SM -SHRA SCT030 BKN050 BKN080
     FM291000 14005KT P6SM OVC045
     FM292000 31003KT P6SM SCT045
     FM300100 14003KT P6SM SCT045=



000
FTUS46 KOTX 290520
TAFMWH
TAF
KMWH 290520Z 2906/3006 12003KT P6SM BKN050 BKN080
     FM291800 22005KT P6SM SCT050 SCT080
     FM300100 12004KT P6SM SCT080=



000
FTUS46 KOTX 290520
TAFGEG
TAF
KGEG 290520Z 2906/3006 16006KT P6SM -SHRA SCT019 BKN030 OVC050
     FM290800 16006KT P6SM VCSH SCT035 BKN050
     FM291000 18008KT 6SM BR BKN015 OVC040
     FM291900 20007G10KT P6SM SCT015 OVC040
     FM300100 14004KT P6SM SCT040 SCT200=



000
FTUS46 KOTX 290520
TAFSFF
TAF
KSFF 290520Z 2906/3006 16006KT P6SM -SHRA SCT025 BKN035 OVC050
     FM290800 20007KT P6SM VCSH BKN020 OVC040
     FM291000 18007KT 6SM BR BKN019 OVC040
     FM291900 22007KT P6SM SCT015 BKN050
     FM300100 04003KT P6SM SCT050 SCT200=



    US Dept of Commerce
    National Oceanic and Atmospheric Administration
    National Weather Service
    1325 East West Highway
    Silver Spring, MD 20910
    Page Author: NWS Internet Services Team
Disclaimer
Information Quality
Credits
Glossary
Privacy Policy
Freedom of Information Act (FOIA)
About Us
Career Opportunities